Showers in the vicinity Current Weather (METAR) For London Heathrow Airport

All times on the weather descriptions are local

Observed at 12:50 - (8 mins ago)

 Showers in the vicinity

13°C

Showers in the vicinity , Rain Showers
Clouds: Scattered Clouds at 4,400ft
Wind: 290° at 22 knots, gusting 36 knots
Visibility: Greater than 10km
QNH: 1006
Dew Point: 3°C
Runway in Use: Landing: Runway , Take-Off: Runway

Sunrise Today: 07:35
Sunset Today: 17:57

Forecast Weather (TAF) For London Heathrow Airport

Issued at 01:00 - (9 days 12 hrs ago)


Runway in Use: Likely Runways 27L/R

Forecast valid until 01:00 on Friday

METAR/TAF RAW METAR / TAF

EGLL 211150Z 29022G36KT 9999 VCSH SCT044 13/03 Q1006 TEMPO SHRA

Weather Widget

Put weather from any of our airports on your website with our weather widget.

Find Another Search

Airport Search


Please Wait Please Wait - Loading
Close
Close

Login

Username:

Password:

Remember Me:

Remember me on this computer

Forgotten your password? Get a reset password sent to your registered e-mail address

Close

User Private Message

Subject:

Message: